Coeburn, VA

6:10 AM EST on February 01, 2015 (GMT -0500)
RAWS WISE VA US | Change Station
CLOSE
Current Station
Personal Weather Station
Location: Wise, VA
Elevation: 2529 ft
Nearby Weather Stations

Elev 2529 ft 36.97 °N, 82.56 °W | Updated 59 minutes ago

Mostly Cloudy
Mostly Cloudy
31 °F
Feels Like 31 °F
N
1
Wind Variable Wind from West
Gusts 5.0 mph

Today
High -- | Low -- °F
--% Chance of Precip.
Yesterday
High -- | Low -- °F
Precip. -- in
7:32 AM 5:54 PM
Waxing Gibbous, 94% visible
Pressure 30.16 in
Visibility 10.0 miles
Clouds Mostly Cloudy 10000 ft
Windchill 31 °F
Dew Point 17 °F
Humidity 55%
Rainfall 0.00 in
Snow Depth Not available.
UV 0 out of 12
Pollen .40 out of 12
Air Quality Not available.
Flu Activity Not available.
METAR KLNP 011055Z AUTO 21006KT 10SM BKN100 01/M09 A3016 RMK AO2

More Conditions Fewer Conditions

Pressure 30.16 in
Visibility 10.0 miles
Clouds Mostly Cloudy 10000 ft
Windchill 31 °F
Dew Point 17 °F
Humidity 55%
Rainfall 0.00 in
Snow Depth Not available.
UV 0 out of 12
Pollen .40 out of 12
Air Quality Not available.
Flu Activity Not available.
METAR KLNP 011055Z AUTO 21006KT 10SM BKN100 01/M09 A3016 RMK AO2

More Conditions Fewer Conditions

10-Day Weather Forecast

Almanac

Astronomy

Feb. 01, 2015 Rise Set
Actual Time
Civil Twilight
Nautical Twilight
Astronomical Twilight
Moon
Length of Visible Light
Length of Day
Tomorrow will be .
, % of the Moon is Illuminated

Today's Extremes

State Highs State Lows

Community

WunderPhotos

Upload Photos

1,792,345 photos uploaded!

WunderBlogs® & News

Nearby

Air Quality

  Air Quality AQ Index Pollutant
Not available.

Snow Depth

Station Depth Elevation

Earthquake Activity

City Distance Mag. Time & Date
Minimum magnitude displayed is 2.5.

Coastal Water Temperatures

Place Temperature

Nearby Weather Stations